sensor_id;sensor_type;location;lat;lon;timestamp;temperature;humidity
14031;DHT22;7090;49.436;8.490;2023-07-28T00:02:24;17.90;99.90
14031;DHT22;7090;49.436;8.490;2023-07-28T00:04:50;17.90;99.90
14031;DHT22;7090;49.436;8.490;2023-07-28T00:07:15;17.90;99.90
14031;DHT22;7090;49.436;8.490;2023-07-28T00:09:41;17.90;99.90
14031;DHT22;7090;49.436;8.490;2023-07-28T00:12:06;17.90;99.90
14031;DHT22;7090;49.436;8.490;2023-07-28T00:14:32;17.90;99.90
14031;DHT22;7090;49.436;8.490;2023-07-28T00:16:58;18.00;99.90
14031;DHT22;7090;49.436;8.490;2023-07-28T00:19:23;17.90;99.90
14031;DHT22;7090;49.436;8.490;2023-07-28T00:21:49;17.90;99.90
14031;DHT22;7090;49.436;8.490;2023-07-28T00:24:15;17.90;99.90
14031;DHT22;7090;49.436;8.490;2023-07-28T00:26:41;18.00;99.90
14031;DHT22;7090;49.436;8.490;2023-07-28T00:29:07;18.00;99.90
14031;DHT22;7090;49.436;8.490;2023-07-28T00:31:33;18.00;99.90
14031;DHT22;7090;49.436;8.490;2023-07-28T00:33:59;18.00;99.90
14031;DHT22;7090;49.436;8.490;2023-07-28T00:36:24;18.00;99.90
14031;DHT22;7090;49.436;8.490;2023-07-28T00:38:50;18.00;99.90
14031;DHT22;7090;49.436;8.490;2023-07-28T00:41:16;17.90;99.90
14031;DHT22;7090;49.436;8.490;2023-07-28T00:43:41;17.90;99.90
14031;DHT22;7090;49.436;8.490;2023-07-28T00:46:08;17.90;99.90
14031;DHT22;7090;49.436;8.490;2023-07-28T00:48:34;17.90;99.90
14031;DHT22;7090;49.436;8.490;2023-07-28T00:51:00;17.90;99.90
14031;DHT22;7090;49.436;8.490;2023-07-28T00:53:26;17.90;99.90
14031;DHT22;7090;49.436;8.490;2023-07-28T00:55:51;17.90;99.90
14031;DHT22;7090;49.436;8.490;2023-07-28T00:58:17;18.00;99.90
14031;DHT22;7090;49.436;8.490;2023-07-28T01:00:43;18.00;99.90
14031;DHT22;7090;49.436;8.490;2023-07-28T01:03:09;18.00;99.90
14031;DHT22;7090;49.436;8.490;2023-07-28T01:08:53;18.00;99.90
14031;DHT22;7090;49.436;8.490;2023-07-28T01:11:21;18.10;99.90
14031;DHT22;7090;49.436;8.490;2023-07-28T01:13:47;18.00;99.90
14031;DHT22;7090;49.436;8.490;2023-07-28T01:16:13;18.10;99.90
14031;DHT22;7090;49.436;8.490;2023-07-28T01:18:38;18.10;99.90
14031;DHT22;7090;49.436;8.490;2023-07-28T01:21:07;18.10;99.90
14031;DHT22;7090;49.436;8.490;2023-07-28T01:23:38;18.10;99.90
14031;DHT22;7090;49.436;8.490;2023-07-28T01:26:09;18.10;99.90
14031;DHT22;7090;49.436;8.490;2023-07-28T01:28:36;18.10;99.90
14031;DHT22;7090;49.436;8.490;2023-07-28T01:31:06;18.10;99.90
14031;DHT22;7090;49.436;8.490;2023-07-28T01:33:32;18.10;99.90
14031;DHT22;7090;49.436;8.490;2023-07-28T01:35:58;18.10;99.90
14031;DHT22;7090;49.436;8.490;2023-07-28T01:38:26;18.00;99.90
14031;DHT22;7090;49.436;8.490;2023-07-28T01:40:52;18.10;99.90
14031;DHT22;7090;49.436;8.490;2023-07-28T01:43:18;18.10;99.90
14031;DHT22;7090;49.436;8.490;2023-07-28T01:45:43;18.10;99.90
14031;DHT22;7090;49.436;8.490;2023-07-28T01:48:09;18.10;99.90
14031;DHT22;7090;49.436;8.490;2023-07-28T01:50:37;18.00;99.90
14031;DHT22;7090;49.436;8.490;2023-07-28T01:53:07;18.10;99.90
14031;DHT22;7090;49.436;8.490;2023-07-28T01:55:32;18.10;99.90
14031;DHT22;7090;49.436;8.490;2023-07-28T01:58:00;18.10;99.90
14031;DHT22;7090;49.436;8.490;2023-07-28T02:00:26;18.10;99.90
14031;DHT22;7090;49.436;8.490;2023-07-28T02:02:52;18.20;99.90
14031;DHT22;7090;49.436;8.490;2023-07-28T02:05:18;18.20;99.90
14031;DHT22;7090;49.436;8.490;2023-07-28T02:07:44;18.30;99.90
14031;DHT22;7090;49.436;8.490;2023-07-28T02:10:10;18.10;99.90
14031;DHT22;7090;49.436;8.490;2023-07-28T02:12:36;18.20;99.90
14031;DHT22;7090;49.436;8.490;2023-07-28T02:15:03;18.10;99.90
14031;DHT22;7090;49.436;8.490;2023-07-28T02:17:28;18.30;99.90
14031;DHT22;7090;49.436;8.490;2023-07-28T02:19:54;18.30;99.90
14031;DHT22;7090;49.436;8.490;2023-07-28T02:22:20;18.40;99.90
14031;DHT22;7090;49.436;8.490;2023-07-28T02:24:46;18.40;99.90
14031;DHT22;7090;49.436;8.490;2023-07-28T02:27:11;18.40;99.90
14031;DHT22;7090;49.436;8.490;2023-07-28T02:29:37;18.30;99.90
14031;DHT22;7090;49.436;8.490;2023-07-28T02:32:02;18.30;99.90
14031;DHT22;7090;49.436;8.490;2023-07-28T02:34:28;18.40;99.90
14031;DHT22;7090;49.436;8.490;2023-07-28T02:36:54;18.40;99.90
14031;DHT22;7090;49.436;8.490;2023-07-28T02:39:19;18.40;99.90
14031;DHT22;7090;49.436;8.490;2023-07-28T02:41:45;18.40;99.90
14031;DHT22;7090;49.436;8.490;2023-07-28T02:44:11;18.40;99.90
14031;DHT22;7090;49.436;8.490;2023-07-28T02:46:37;18.40;99.90
14031;DHT22;7090;49.436;8.490;2023-07-28T02:49:02;18.30;99.90
14031;DHT22;7090;49.436;8.490;2023-07-28T02:51:32;18.30;99.90
14031;DHT22;7090;49.436;8.490;2023-07-28T02:53:59;18.30;99.90
14031;DHT22;7090;49.436;8.490;2023-07-28T02:56:25;18.30;99.90
14031;DHT22;7090;49.436;8.490;2023-07-28T02:58:51;18.30;99.90
14031;DHT22;7090;49.436;8.490;2023-07-28T03:01:16;18.30;99.90
14031;DHT22;7090;49.436;8.490;2023-07-28T03:03:42;18.30;99.90
14031;DHT22;7090;49.436;8.490;2023-07-28T03:06:08;18.30;99.90
14031;DHT22;7090;49.436;8.490;2023-07-28T03:08:34;18.30;99.90
14031;DHT22;7090;49.436;8.490;2023-07-28T03:10:59;18.30;99.90
14031;DHT22;7090;49.436;8.490;2023-07-28T03:13:28;18.30;99.90
14031;DHT22;7090;49.436;8.490;2023-07-28T03:15:54;18.30;99.90
14031;DHT22;7090;49.436;8.490;2023-07-28T03:18:19;18.20;99.90
14031;DHT22;7090;49.436;8.490;2023-07-28T03:20:46;18.20;99.90
14031;DHT22;7090;49.436;8.490;2023-07-28T03:23:12;18.20;99.90
14031;DHT22;7090;49.436;8.490;2023-07-28T03:25:37;18.20;99.90
14031;DHT22;7090;49.436;8.490;2023-07-28T03:28:03;18.20;99.90
14031;DHT22;7090;49.436;8.490;2023-07-28T03:30:28;18.10;99.90
14031;DHT22;7090;49.436;8.490;2023-07-28T03:32:54;18.10;99.90
14031;DHT22;7090;49.436;8.490;2023-07-28T03:35:19;18.10;99.90
14031;DHT22;7090;49.436;8.490;2023-07-28T03:37:45;18.00;99.90
14031;DHT22;7090;49.436;8.490;2023-07-28T03:40:11;18.00;99.90
14031;DHT22;7090;49.436;8.490;2023-07-28T03:42:36;17.90;99.90
14031;DHT22;7090;49.436;8.490;2023-07-28T03:45:02;18.00;99.90
14031;DHT22;7090;49.436;8.490;2023-07-28T03:47:28;18.00;99.90
14031;DHT22;7090;49.436;8.490;2023-07-28T03:49:54;18.00;99.90
14031;DHT22;7090;49.436;8.490;2023-07-28T03:52:19;17.90;99.90
14031;DHT22;7090;49.436;8.490;2023-07-28T03:54:45;18.00;99.90
14031;DHT22;7090;49.436;8.490;2023-07-28T03:57:10;18.00;99.90
14031;DHT22;7090;49.436;8.490;2023-07-28T03:59:36;18.00;99.90
14031;DHT22;7090;49.436;8.490;2023-07-28T04:02:02;18.00;99.90
14031;DHT22;7090;49.436;8.490;2023-07-28T04:04:28;18.00;99.90
14031;DHT22;7090;49.436;8.490;2023-07-28T04:06:53;17.90;99.90
14031;DHT22;7090;49.436;8.490;2023-07-28T04:09:19;18.00;99.90
14031;DHT22;7090;49.436;8.490;2023-07-28T04:11:45;18.00;99.90
14031;DHT22;7090;49.436;8.490;2023-07-28T04:14:12;18.00;99.90
14031;DHT22;7090;49.436;8.490;2023-07-28T04:16:37;18.00;99.90
14031;DHT22;7090;49.436;8.490;2023-07-28T04:19:03;18.00;99.90
14031;DHT22;7090;49.436;8.490;2023-07-28T04:21:29;18.00;99.90
14031;DHT22;7090;49.436;8.490;2023-07-28T04:23:55;18.00;99.90
14031;DHT22;7090;49.436;8.490;2023-07-28T04:26:21;18.00;99.90
14031;DHT22;7090;49.436;8.490;2023-07-28T04:28:47;18.00;99.90
14031;DHT22;7090;49.436;8.490;2023-07-28T04:31:13;18.00;99.90
14031;DHT22;7090;49.436;8.490;2023-07-28T04:33:41;18.00;99.90
14031;DHT22;7090;49.436;8.490;2023-07-28T04:36:07;18.10;99.90
14031;DHT22;7090;49.436;8.490;2023-07-28T04:38:32;18.10;99.90
14031;DHT22;7090;49.436;8.490;2023-07-28T04:40:58;18.10;99.90
14031;DHT22;7090;49.436;8.490;2023-07-28T04:43:23;18.10;99.90
14031;DHT22;7090;49.436;8.490;2023-07-28T04:45:49;18.10;99.90
14031;DHT22;7090;49.436;8.490;2023-07-28T04:48:15;18.10;99.90
14031;DHT22;7090;49.436;8.490;2023-07-28T04:50:40;18.10;99.90
14031;DHT22;7090;49.436;8.490;2023-07-28T04:53:06;18.20;99.90
14031;DHT22;7090;49.436;8.490;2023-07-28T04:55:31;18.20;99.90
14031;DHT22;7090;49.436;8.490;2023-07-28T04:57:57;18.10;99.90
14031;DHT22;7090;49.436;8.490;2023-07-28T05:00:23;18.10;99.90
14031;DHT22;7090;49.436;8.490;2023-07-28T05:02:49;18.10;99.90
14031;DHT22;7090;49.436;8.490;2023-07-28T05:05:14;18.10;99.90
14031;DHT22;7090;49.436;8.490;2023-07-28T05:07:40;18.10;99.90
14031;DHT22;7090;49.436;8.490;2023-07-28T05:10:06;18.10;99.90
14031;DHT22;7090;49.436;8.490;2023-07-28T05:12:32;18.10;99.90
14031;DHT22;7090;49.436;8.490;2023-07-28T05:14:57;18.10;99.90
14031;DHT22;7090;49.436;8.490;2023-07-28T05:17:23;18.10;99.90
14031;DHT22;7090;49.436;8.490;2023-07-28T05:19:50;18.20;99.90
14031;DHT22;7090;49.436;8.490;2023-07-28T05:22:16;18.10;99.90
14031;DHT22;7090;49.436;8.490;2023-07-28T05:24:42;18.20;99.90
14031;DHT22;7090;49.436;8.490;2023-07-28T05:27:09;18.20;99.90
14031;DHT22;7090;49.436;8.490;2023-07-28T05:29:34;18.20;99.90
14031;DHT22;7090;49.436;8.490;2023-07-28T05:32:00;18.20;99.90
14031;DHT22;7090;49.436;8.490;2023-07-28T05:34:26;18.20;99.90
14031;DHT22;7090;49.436;8.490;2023-07-28T05:36:51;18.20;99.90
14031;DHT22;7090;49.436;8.490;2023-07-28T05:39:17;18.20;99.90
14031;DHT22;7090;49.436;8.490;2023-07-28T05:41:42;18.20;99.90
14031;DHT22;7090;49.436;8.490;2023-07-28T05:44:08;18.30;99.90
14031;DHT22;7090;49.436;8.490;2023-07-28T05:46:34;18.20;99.90
14031;DHT22;7090;49.436;8.490;2023-07-28T05:48:59;18.30;99.90
14031;DHT22;7090;49.436;8.490;2023-07-28T05:51:25;18.20;99.90
14031;DHT22;7090;49.436;8.490;2023-07-28T05:53:51;18.20;99.90
14031;DHT22;7090;49.436;8.490;2023-07-28T05:56:16;18.30;99.90
14031;DHT22;7090;49.436;8.490;2023-07-28T05:58:44;18.30;99.90
14031;DHT22;7090;49.436;8.490;2023-07-28T06:01:09;18.30;99.90
14031;DHT22;7090;49.436;8.490;2023-07-28T06:03:35;18.30;99.90
14031;DHT22;7090;49.436;8.490;2023-07-28T06:06:01;18.30;99.90
14031;DHT22;7090;49.436;8.490;2023-07-28T06:08:26;18.40;99.90
14031;DHT22;7090;49.436;8.490;2023-07-28T06:10:52;18.40;99.90
14031;DHT22;7090;49.436;8.490;2023-07-28T06:13:17;18.40;99.90
14031;DHT22;7090;49.436;8.490;2023-07-28T06:15:43;18.40;99.90
14031;DHT22;7090;49.436;8.490;2023-07-28T06:18:09;18.50;99.90
14031;DHT22;7090;49.436;8.490;2023-07-28T06:20:34;18.50;99.90
14031;DHT22;7090;49.436;8.490;2023-07-28T06:23:00;18.50;99.90
14031;DHT22;7090;49.436;8.490;2023-07-28T06:25:26;18.60;99.90
14031;DHT22;7090;49.436;8.490;2023-07-28T06:27:52;18.60;99.90
14031;DHT22;7090;49.436;8.490;2023-07-28T06:30:18;18.60;99.90
14031;DHT22;7090;49.436;8.490;2023-07-28T06:32:43;18.70;99.90
14031;DHT22;7090;49.436;8.490;2023-07-28T06:35:09;18.70;99.90
14031;DHT22;7090;49.436;8.490;2023-07-28T06:37:36;18.70;99.90
14031;DHT22;7090;49.436;8.490;2023-07-28T06:40:03;18.70;99.90
14031;DHT22;7090;49.436;8.490;2023-07-28T06:42:29;18.70;99.90
14031;DHT22;7090;49.436;8.490;2023-07-28T06:44:55;18.70;99.90
14031;DHT22;7090;49.436;8.490;2023-07-28T06:47:21;18.80;99.90
14031;DHT22;7090;49.436;8.490;2023-07-28T06:49:47;18.80;99.90
14031;DHT22;7090;49.436;8.490;2023-07-28T06:52:12;18.90;99.90
14031;DHT22;7090;49.436;8.490;2023-07-28T06:54:38;18.90;99.90
14031;DHT22;7090;49.436;8.490;2023-07-28T06:57:04;19.00;99.90
14031;DHT22;7090;49.436;8.490;2023-07-28T06:59:31;19.00;99.90
14031;DHT22;7090;49.436;8.490;2023-07-28T07:01:57;19.00;99.90
14031;DHT22;7090;49.436;8.490;2023-07-28T07:04:23;19.10;99.90
14031;DHT22;7090;49.436;8.490;2023-07-28T07:06:48;19.10;99.90
14031;DHT22;7090;49.436;8.490;2023-07-28T07:09:14;19.20;99.90
14031;DHT22;7090;49.436;8.490;2023-07-28T07:11:40;19.10;99.90
14031;DHT22;7090;49.436;8.490;2023-07-28T07:14:06;19.10;99.90
14031;DHT22;7090;49.436;8.490;2023-07-28T07:16:32;19.10;99.90
14031;DHT22;7090;49.436;8.490;2023-07-28T07:18:57;19.20;99.90
14031;DHT22;7090;49.436;8.490;2023-07-28T07:21:23;19.30;99.90
14031;DHT22;7090;49.436;8.490;2023-07-28T07:23:49;19.20;99.90
14031;DHT22;7090;49.436;8.490;2023-07-28T07:26:14;19.20;99.90
14031;DHT22;7090;49.436;8.490;2023-07-28T07:28:40;19.20;99.90
14031;DHT22;7090;49.436;8.490;2023-07-28T07:31:15;19.20;99.90
14031;DHT22;7090;49.436;8.490;2023-07-28T07:33:41;19.30;99.90
14031;DHT22;7090;49.436;8.490;2023-07-28T07:36:17;19.30;99.90
14031;DHT22;7090;49.436;8.490;2023-07-28T07:38:43;19.50;99.90
14031;DHT22;7090;49.436;8.490;2023-07-28T07:41:13;19.50;99.90
14031;DHT22;7090;49.436;8.490;2023-07-28T07:43:41;19.60;99.90
14031;DHT22;7090;49.436;8.490;2023-07-28T07:46:07;19.60;99.90
14031;DHT22;7090;49.436;8.490;2023-07-28T07:48:32;19.70;99.90
14031;DHT22;7090;49.436;8.490;2023-07-28T07:50:58;19.70;99.90
14031;DHT22;7090;49.436;8.490;2023-07-28T07:53:24;19.70;99.90
14031;DHT22;7090;49.436;8.490;2023-07-28T07:55:49;19.80;99.90
14031;DHT22;7090;49.436;8.490;2023-07-28T07:58:15;20.00;99.90
14031;DHT22;7090;49.436;8.490;2023-07-28T08:00:40;20.30;99.90
14031;DHT22;7090;49.436;8.490;2023-07-28T08:03:06;20.40;99.90
14031;DHT22;7090;49.436;8.490;2023-07-28T08:05:32;20.30;99.90
14031;DHT22;7090;49.436;8.490;2023-07-28T08:07:57;20.30;99.90
14031;DHT22;7090;49.436;8.490;2023-07-28T08:10:23;20.30;99.90
14031;DHT22;7090;49.436;8.490;2023-07-28T08:12:52;20.20;99.90
14031;DHT22;7090;49.436;8.490;2023-07-28T08:15:18;20.10;99.90
14031;DHT22;7090;49.436;8.490;2023-07-28T08:17:44;20.10;99.90
14031;DHT22;7090;49.436;8.490;2023-07-28T08:20:10;20.30;99.90
14031;DHT22;7090;49.436;8.490;2023-07-28T08:22:35;20.30;99.90
14031;DHT22;7090;49.436;8.490;2023-07-28T08:25:01;20.30;99.90
14031;DHT22;7090;49.436;8.490;2023-07-28T08:27:26;20.60;99.90
14031;DHT22;7090;49.436;8.490;2023-07-28T08:29:52;20.80;99.90
14031;DHT22;7090;49.436;8.490;2023-07-28T08:32:18;21.20;99.90
14031;DHT22;7090;49.436;8.490;2023-07-28T08:34:43;21.40;99.90
14031;DHT22;7090;49.436;8.490;2023-07-28T08:37:09;21.50;99.90
14031;DHT22;7090;49.436;8.490;2023-07-28T08:39:34;21.70;99.90
14031;DHT22;7090;49.436;8.490;2023-07-28T08:42:01;21.90;99.90
14031;DHT22;7090;49.436;8.490;2023-07-28T08:44:32;22.10;99.90
14031;DHT22;7090;49.436;8.490;2023-07-28T08:46:59;22.30;99.90
14031;DHT22;7090;49.436;8.490;2023-07-28T08:49:25;22.70;99.90
14031;DHT22;7090;49.436;8.490;2023-07-28T08:51:52;22.80;99.90
14031;DHT22;7090;49.436;8.490;2023-07-28T08:54:22;22.50;99.90
14031;DHT22;7090;49.436;8.490;2023-07-28T08:56:48;22.60;99.90
14031;DHT22;7090;49.436;8.490;2023-07-28T08:59:24;22.90;99.90
14031;DHT22;7090;49.436;8.490;2023-07-28T09:01:56;22.60;99.90
14031;DHT22;7090;49.436;8.490;2023-07-28T09:04:23;22.30;99.90
14031;DHT22;7090;49.436;8.490;2023-07-28T09:06:49;22.10;99.90
14031;DHT22;7090;49.436;8.490;2023-07-28T09:09:17;22.10;99.90
14031;DHT22;7090;49.436;8.490;2023-07-28T09:11:51;22.50;99.90
14031;DHT22;7090;49.436;8.490;2023-07-28T09:14:19;22.60;99.90
14031;DHT22;7090;49.436;8.490;2023-07-28T09:16:46;22.70;99.90
14031;DHT22;7090;49.436;8.490;2023-07-28T09:19:12;23.00;99.90
14031;DHT22;7090;49.436;8.490;2023-07-28T09:21:38;23.50;99.90
14031;DHT22;7090;49.436;8.490;2023-07-28T09:24:05;23.50;99.90
14031;DHT22;7090;49.436;8.490;2023-07-28T09:26:42;23.60;99.90
14031;DHT22;7090;49.436;8.490;2023-07-28T09:29:12;23.50;99.90
14031;DHT22;7090;49.436;8.490;2023-07-28T09:31:39;23.90;99.90
14031;DHT22;7090;49.436;8.490;2023-07-28T09:34:07;24.50;99.90
14031;DHT22;7090;49.436;8.490;2023-07-28T09:36:34;25.00;99.90
14031;DHT22;7090;49.436;8.490;2023-07-28T09:39:01;24.80;37.90
14031;DHT22;7090;49.436;8.490;2023-07-28T09:41:29;24.60;99.90
14031;DHT22;7090;49.436;8.490;2023-07-28T09:43:55;24.70;81.80
14031;DHT22;7090;49.436;8.490;2023-07-28T09:46:23;24.50;1.00
14031;DHT22;7090;49.436;8.490;2023-07-28T09:48:52;24.30;58.50
14031;DHT22;7090;49.436;8.490;2023-07-28T09:51:22;24.00;95.40
14031;DHT22;7090;49.436;8.490;2023-07-28T09:53:56;22.90;99.90
14031;DHT22;7090;49.436;8.490;2023-07-28T09:56:28;22.50;99.90
14031;DHT22;7090;49.436;8.490;2023-07-28T09:58:56;22.30;99.90
14031;DHT22;7090;49.436;8.490;2023-07-28T10:01:23;22.50;99.90
14031;DHT22;7090;49.436;8.490;2023-07-28T10:03:49;22.60;99.90
14031;DHT22;7090;49.436;8.490;2023-07-28T10:06:15;22.90;99.90
14031;DHT22;7090;49.436;8.490;2023-07-28T10:08:45;23.10;99.90
14031;DHT22;7090;49.436;8.490;2023-07-28T10:11:12;23.20;99.90
14031;DHT22;7090;49.436;8.490;2023-07-28T10:13:42;23.60;99.90
14031;DHT22;7090;49.436;8.490;2023-07-28T10:16:08;24.00;99.90
14031;DHT22;7090;49.436;8.490;2023-07-28T10:18:39;24.10;60.60
14031;DHT22;7090;49.436;8.490;2023-07-28T10:21:10;24.60;1.00
14031;DHT22;7090;49.436;8.490;2023-07-28T10:23:39;24.10;1.00
14031;DHT22;7090;49.436;8.490;2023-07-28T10:26:05;24.10;1.00
14031;DHT22;7090;49.436;8.490;2023-07-28T10:28:39;24.10;1.00
14031;DHT22;7090;49.436;8.490;2023-07-28T10:31:10;24.60;1.00
14031;DHT22;7090;49.436;8.490;2023-07-28T10:33:40;24.40;1.00
14031;DHT22;7090;49.436;8.490;2023-07-28T10:36:17;24.70;1.00
14031;DHT22;7090;49.436;8.490;2023-07-28T10:38:43;24.60;1.00
14031;DHT22;7090;49.436;8.490;2023-07-28T10:41:17;24.00;1.00
14031;DHT22;7090;49.436;8.490;2023-07-28T10:43:44;23.80;99.90
14031;DHT22;7090;49.436;8.490;2023-07-28T10:46:17;23.70;99.90
14031;DHT22;7090;49.436;8.490;2023-07-28T10:48:44;23.70;99.90
14031;DHT22;7090;49.436;8.490;2023-07-28T10:51:11;23.90;99.90
14031;DHT22;7090;49.436;8.490;2023-07-28T10:53:38;23.60;99.90
14031;DHT22;7090;49.436;8.490;2023-07-28T10:56:04;23.60;99.90
14031;DHT22;7090;49.436;8.490;2023-07-28T10:58:33;23.70;99.90
14031;DHT22;7090;49.436;8.490;2023-07-28T11:01:00;23.80;99.90
14031;DHT22;7090;49.436;8.490;2023-07-28T11:03:27;23.50;99.90
14031;DHT22;7090;49.436;8.490;2023-07-28T11:05:54;23.50;99.90
14031;DHT22;7090;49.436;8.490;2023-07-28T11:08:22;23.60;99.90
14031;DHT22;7090;49.436;8.490;2023-07-28T11:10:48;23.70;99.90
14031;DHT22;7090;49.436;8.490;2023-07-28T11:13:13;23.70;99.90
14031;DHT22;7090;49.436;8.490;2023-07-28T11:15:39;23.40;99.90
14031;DHT22;7090;49.436;8.490;2023-07-28T11:18:05;23.40;99.90
14031;DHT22;7090;49.436;8.490;2023-07-28T11:20:31;23.40;99.90
14031;DHT22;7090;49.436;8.490;2023-07-28T11:25:24;23.50;99.90
14031;DHT22;7090;49.436;8.490;2023-07-28T11:27:50;23.50;99.90
14031;DHT22;7090;49.436;8.490;2023-07-28T11:30:18;23.40;99.90
14031;DHT22;7090;49.436;8.490;2023-07-28T11:32:46;23.30;99.90
14031;DHT22;7090;49.436;8.490;2023-07-28T11:35:13;23.10;99.90
14031;DHT22;7090;49.436;8.490;2023-07-28T11:37:44;23.20;99.90
14031;DHT22;7090;49.436;8.490;2023-07-28T11:40:11;23.00;99.90
14031;DHT22;7090;49.436;8.490;2023-07-28T11:42:43;23.00;99.90
14031;DHT22;7090;49.436;8.490;2023-07-28T11:45:10;22.90;99.90
14031;DHT22;7090;49.436;8.490;2023-07-28T11:47:37;23.00;99.90
14031;DHT22;7090;49.436;8.490;2023-07-28T11:50:03;22.80;99.90
14031;DHT22;7090;49.436;8.490;2023-07-28T11:52:32;23.00;99.90
14031;DHT22;7090;49.436;8.490;2023-07-28T11:54:59;23.20;99.90
14031;DHT22;7090;49.436;8.490;2023-07-28T11:57:26;23.30;99.90
14031;DHT22;7090;49.436;8.490;2023-07-28T11:59:53;23.40;99.90
14031;DHT22;7090;49.436;8.490;2023-07-28T12:02:27;23.40;99.90
14031;DHT22;7090;49.436;8.490;2023-07-28T12:04:53;23.30;99.90
14031;DHT22;7090;49.436;8.490;2023-07-28T12:07:30;23.10;99.90
14031;DHT22;7090;49.436;8.490;2023-07-28T12:09:56;23.50;99.90
14031;DHT22;7090;49.436;8.490;2023-07-28T12:12:27;23.50;99.90
14031;DHT22;7090;49.436;8.490;2023-07-28T12:14:55;23.00;99.90
14031;DHT22;7090;49.436;8.490;2023-07-28T12:17:23;22.80;99.90
14031;DHT22;7090;49.436;8.490;2023-07-28T12:20:02;22.70;99.90
14031;DHT22;7090;49.436;8.490;2023-07-28T12:22:34;22.60;99.90
14031;DHT22;7090;49.436;8.490;2023-07-28T12:25:00;22.50;99.90
14031;DHT22;7090;49.436;8.490;2023-07-28T12:27:25;22.40;99.90
14031;DHT22;7090;49.436;8.490;2023-07-28T12:29:52;22.40;99.90
14031;DHT22;7090;49.436;8.490;2023-07-28T12:32:18;22.40;99.90
14031;DHT22;7090;49.436;8.490;2023-07-28T12:34:43;22.30;99.90
14031;DHT22;7090;49.436;8.490;2023-07-28T12:37:09;22.30;99.90
14031;DHT22;7090;49.436;8.490;2023-07-28T12:39:37;22.20;99.90
14031;DHT22;7090;49.436;8.490;2023-07-28T12:42:07;22.20;99.90
14031;DHT22;7090;49.436;8.490;2023-07-28T12:44:33;22.10;99.90
14031;DHT22;7090;49.436;8.490;2023-07-28T12:46:59;22.10;99.90
14031;DHT22;7090;49.436;8.490;2023-07-28T12:49:25;22.10;99.90
14031;DHT22;7090;49.436;8.490;2023-07-28T12:51:50;22.00;99.90
14031;DHT22;7090;49.436;8.490;2023-07-28T12:54:16;21.90;99.90
14031;DHT22;7090;49.436;8.490;2023-07-28T12:56:42;21.80;99.90
14031;DHT22;7090;49.436;8.490;2023-07-28T12:59:08;21.70;99.90
14031;DHT22;7090;49.436;8.490;2023-07-28T13:01:34;21.50;99.90
14031;DHT22;7090;49.436;8.490;2023-07-28T13:04:00;21.20;99.90
14031;DHT22;7090;49.436;8.490;2023-07-28T13:06:26;21.10;99.90
14031;DHT22;7090;49.436;8.490;2023-07-28T13:08:51;20.80;99.90
14031;DHT22;7090;49.436;8.490;2023-07-28T13:11:17;20.80;99.90
14031;DHT22;7090;49.436;8.490;2023-07-28T13:13:43;20.70;99.90
14031;DHT22;7090;49.436;8.490;2023-07-28T13:16:08;20.60;99.90
14031;DHT22;7090;49.436;8.490;2023-07-28T13:18:34;20.20;99.90
14031;DHT22;7090;49.436;8.490;2023-07-28T13:20:59;20.30;99.90
14031;DHT22;7090;49.436;8.490;2023-07-28T13:23:26;20.30;99.90
14031;DHT22;7090;49.436;8.490;2023-07-28T13:25:52;20.40;99.90
14031;DHT22;7090;49.436;8.490;2023-07-28T13:28:18;20.30;99.90
14031;DHT22;7090;49.436;8.490;2023-07-28T13:30:44;20.10;99.90
14031;DHT22;7090;49.436;8.490;2023-07-28T13:33:09;20.10;99.90
14031;DHT22;7090;49.436;8.490;2023-07-28T13:35:35;20.10;99.90
14031;DHT22;7090;49.436;8.490;2023-07-28T13:38:01;20.00;99.90
14031;DHT22;7090;49.436;8.490;2023-07-28T13:40:26;20.00;99.90
14031;DHT22;7090;49.436;8.490;2023-07-28T13:42:52;19.90;99.90
14031;DHT22;7090;49.436;8.490;2023-07-28T13:45:18;19.90;99.90
14031;DHT22;7090;49.436;8.490;2023-07-28T13:47:43;19.90;99.90
14031;DHT22;7090;49.436;8.490;2023-07-28T13:50:09;20.00;99.90
14031;DHT22;7090;49.436;8.490;2023-07-28T13:52:35;20.00;99.90
14031;DHT22;7090;49.436;8.490;2023-07-28T13:55:00;20.00;99.90
14031;DHT22;7090;49.436;8.490;2023-07-28T13:57:26;20.00;99.90
14031;DHT22;7090;49.436;8.490;2023-07-28T13:59:52;20.00;99.90
14031;DHT22;7090;49.436;8.490;2023-07-28T14:02:17;20.00;99.90
14031;DHT22;7090;49.436;8.490;2023-07-28T14:04:43;20.10;99.90
14031;DHT22;7090;49.436;8.490;2023-07-28T14:07:10;20.10;99.90
14031;DHT22;7090;49.436;8.490;2023-07-28T14:09:35;20.00;99.90
14031;DHT22;7090;49.436;8.490;2023-07-28T14:12:03;20.00;99.90
14031;DHT22;7090;49.436;8.490;2023-07-28T14:14:29;20.00;99.90
14031;DHT22;7090;49.436;8.490;2023-07-28T14:16:54;20.00;99.90
14031;DHT22;7090;49.436;8.490;2023-07-28T14:19:20;20.00;99.90
14031;DHT22;7090;49.436;8.490;2023-07-28T14:21:45;19.90;99.90
14031;DHT22;7090;49.436;8.490;2023-07-28T14:24:11;20.00;99.90
14031;DHT22;7090;49.436;8.490;2023-07-28T14:26:36;20.00;99.90
14031;DHT22;7090;49.436;8.490;2023-07-28T14:29:02;19.90;99.90
14031;DHT22;7090;49.436;8.490;2023-07-28T14:31:28;19.90;99.90
14031;DHT22;7090;49.436;8.490;2023-07-28T14:33:54;19.80;99.90
14031;DHT22;7090;49.436;8.490;2023-07-28T14:36:19;19.70;99.90
14031;DHT22;7090;49.436;8.490;2023-07-28T14:38:46;19.80;99.90
14031;DHT22;7090;49.436;8.490;2023-07-28T14:41:12;19.80;99.90
14031;DHT22;7090;49.436;8.490;2023-07-28T14:43:37;19.80;99.90
14031;DHT22;7090;49.436;8.490;2023-07-28T14:46:03;19.70;99.90
14031;DHT22;7090;49.436;8.490;2023-07-28T14:48:29;19.80;99.90
14031;DHT22;7090;49.436;8.490;2023-07-28T14:50:54;19.80;99.90
14031;DHT22;7090;49.436;8.490;2023-07-28T14:53:40;19.80;99.90
14031;DHT22;7090;49.436;8.490;2023-07-28T14:56:06;19.80;99.90
14031;DHT22;7090;49.436;8.490;2023-07-28T14:58:32;19.80;99.90
14031;DHT22;7090;49.436;8.490;2023-07-28T15:00:58;19.90;99.90
14031;DHT22;7090;49.436;8.490;2023-07-28T15:03:28;19.90;99.90
14031;DHT22;7090;49.436;8.490;2023-07-28T15:05:54;19.80;99.90
14031;DHT22;7090;49.436;8.490;2023-07-28T15:08:20;19.80;99.90
14031;DHT22;7090;49.436;8.490;2023-07-28T15:10:46;19.90;99.90
14031;DHT22;7090;49.436;8.490;2023-07-28T15:13:11;19.80;99.90
14031;DHT22;7090;49.436;8.490;2023-07-28T15:15:37;19.80;99.90
14031;DHT22;7090;49.436;8.490;2023-07-28T15:18:03;19.80;99.90
14031;DHT22;7090;49.436;8.490;2023-07-28T15:20:28;19.80;99.90
14031;DHT22;7090;49.436;8.490;2023-07-28T15:22:54;19.80;99.90
14031;DHT22;7090;49.436;8.490;2023-07-28T15:25:20;19.80;99.90
14031;DHT22;7090;49.436;8.490;2023-07-28T15:27:45;19.80;99.90
14031;DHT22;7090;49.436;8.490;2023-07-28T15:30:11;19.70;99.90
14031;DHT22;7090;49.436;8.490;2023-07-28T15:32:38;19.80;99.90
14031;DHT22;7090;49.436;8.490;2023-07-28T15:35:04;19.80;99.90
14031;DHT22;7090;49.436;8.490;2023-07-28T15:37:29;19.80;99.90
14031;DHT22;7090;49.436;8.490;2023-07-28T15:39:55;19.80;99.90
14031;DHT22;7090;49.436;8.490;2023-07-28T15:42:24;19.80;99.90
14031;DHT22;7090;49.436;8.490;2023-07-28T15:44:50;19.80;99.90
14031;DHT22;7090;49.436;8.490;2023-07-28T15:47:17;19.80;99.90
14031;DHT22;7090;49.436;8.490;2023-07-28T15:49:43;19.90;99.90